Time;durP1;ratioP1;P1;durP2;ratioP2;P2;SDS_P1;SDS_P2;PMS_P1;PMS_P2;Temp;Humidity;BMP_temperature;BMP_pressure;BME280_temperature;BME280_humidity;BME280_pressure;Samples;Min_cycle;Max_cycle;Signal;HPM_P1;HPM_P2
2023/05/06 00:02:24;;;;;;;12.30;6.60;;;;;;;13.04;77.28;100315.80;185897;1235;44044;-85
2023/05/06 00:06:27;;;;;;;10.70;6.80;;;;;;;12.97;77.82;100311.80;186015;1234;43665;-85
2023/05/06 00:10:29;;;;;;;9.30;6.40;;;;;;;12.97;77.69;100312.50;185825;1234;58313;-84
2023/05/06 00:14:30;;;;;;;9.10;7.10;;;;;;;12.96;77.82;100303.08;185942;1235;43743;-85
2023/05/06 00:18:32;;;;;;;12.90;7.00;;;;;;;12.96;77.80;100303.52;186071;1235;44046;-84
2023/05/06 00:22:34;;;;;;;10.90;7.50;;;;;;;12.94;78.04;100303.66;185971;1235;43737;-85
2023/05/06 00:26:35;;;;;;;15.90;8.40;;;;;;;12.94;77.78;100296.52;186051;1235;43793;-84
2023/05/06 00:30:37;;;;;;;12.00;6.90;;;;;;;12.97;77.70;100295.89;185959;1235;56839;-84
2023/05/06 00:34:38;;;;;;;10.40;7.60;;;;;;;12.98;77.41;100292.46;185747;1235;43971;-85
2023/05/06 00:38:40;;;;;;;12.80;6.70;;;;;;;12.98;77.19;100294.01;185978;1234;44019;-84
2023/05/06 00:42:42;;;;;;;9.30;6.90;;;;;;;13.01;77.13;100297.20;185944;1235;43845;-85
2023/05/06 00:46:43;;;;;;;8.80;6.70;;;;;;;13.03;76.93;100296.10;185963;1234;43689;-85
2023/05/06 00:50:45;;;;;;;7.30;6.40;;;;;;;13.06;76.87;100294.12;185953;1235;57855;-85
2023/05/06 00:54:47;;;;;;;15.50;9.10;;;;;;;13.06;77.02;100289.59;185862;1234;43721;-85
2023/05/06 00:58:49;;;;;;;18.10;7.70;;;;;;;13.04;76.84;100293.92;185899;1235;43655;-84
2023/05/06 01:02:51;;;;;;;13.40;7.20;;;;;;;13.02;76.98;100288.75;185914;1235;43719;-84
2023/05/06 01:07:11;;;;;;;12.20;8.40;;;;;;;13.06;76.81;100292.83;185866;1235;44000;-84
2023/05/06 01:11:40;;;;;;;8.20;6.60;;;;;;;13.08;77.02;100301.40;186044;1234;58054;-84
2023/05/06 01:15:51;;;;;;;9.70;7.00;;;;;;;13.08;76.93;100297.40;185880;1235;43691;-85
2023/05/06 01:19:57;;;;;;;12.70;7.40;;;;;;;13.05;76.88;100300.21;186000;1235;43797;-85
2023/05/06 01:23:59;;;;;;;11.50;7.50;;;;;;;13.03;77.15;100306.79;185868;1235;44016;-85
2023/05/06 01:28:01;;;;;;;7.20;6.30;;;;;;;13.02;77.88;100306.87;186048;1234;43685;-85
2023/05/06 01:32:40;;;;;;;11.00;7.40;;;;;;;12.98;78.22;100310.82;185871;1235;59501;-85
2023/05/06 01:36:56;;;;;;;7.90;6.20;;;;;;;12.94;78.93;100321.08;184788;1242;44162;-86
2023/05/06 01:41:00;;;;;;;9.00;6.30;;;;;;;12.95;79.54;100322.83;184698;1242;43939;-87
2023/05/06 01:45:05;;;;;;;15.00;6.30;;;;;;;12.99;79.70;100321.73;184671;1242;43739;-87
2023/05/06 01:49:10;;;;;;;14.10;7.70;;;;;;;13.04;79.36;100321.68;184839;1242;43835;-86
2023/05/06 01:53:12;;;;;;;5.50;5.00;;;;;;;13.06;79.59;100324.48;184700;1242;59314;-86
2023/05/06 01:57:13;;;;;;;10.00;6.70;;;;;;;13.10;80.16;100327.16;184569;1242;43969;-86
2023/05/06 02:01:15;;;;;;;9.70;6.90;;;;;;;13.14;80.14;100324.15;184842;1242;43871;-86
2023/05/06 02:05:17;;;;;;;12.30;7.20;;;;;;;13.23;80.04;100327.38;184846;1242;43688;-87
2023/05/06 02:09:19;;;;;;;7.90;5.70;;;;;;;13.25;81.00;100338.94;184669;1242;43745;-87
2023/05/06 02:13:20;;;;;;;9.50;4.90;;;;;;;13.23;82.32;100340.54;185464;1234;57838;-87
2023/05/06 02:17:22;;;;;;;9.70;6.90;;;;;;;13.18;82.93;100350.61;186042;1235;43642;-86
2023/05/06 02:21:24;;;;;;;11.90;7.20;;;;;;;13.22;83.18;100349.54;185951;1235;43756;-86
2023/05/06 02:25:26;;;;;;;8.10;5.30;;;;;;;13.22;85.40;100350.77;185908;1235;43657;-86
2023/05/06 02:29:28;;;;;;;12.90;8.50;;;;;;;12.96;86.97;100362.27;185992;1235;43709;-86
2023/05/06 02:33:29;;;;;;;15.20;6.30;;;;;;;12.81;85.13;100360.55;185861;1234;59100;-87
2023/05/06 02:37:31;;;;;;;9.40;6.10;;;;;;;12.83;87.25;100351.23;185952;1235;43845;-87
2023/05/06 02:41:33;;;;;;;8.90;6.50;;;;;;;12.88;88.59;100349.15;185848;1237;44157;-87
2023/05/06 02:45:35;;;;;;;11.10;7.60;;;;;;;12.87;90.59;100344.76;186018;1235;43682;-87
2023/05/06 02:49:36;;;;;;;10.80;5.60;;;;;;;12.83;91.30;100338.08;185990;1234;43682;-87
2023/05/06 02:53:38;;;;;;;8.00;6.70;;;;;;;12.78;91.33;100341.63;186019;1235;57986;-85
2023/05/06 02:57:40;;;;;;;9.50;6.40;;;;;;;12.79;91.25;100342.98;185905;1234;44016;-85
2023/05/06 03:01:41;;;;;;;13.10;7.50;;;;;;;12.75;91.45;100342.63;186037;1235;43928;-85
2023/05/06 03:05:43;;;;;;;10.30;7.10;;;;;;;12.68;90.82;100341.05;185927;1235;43805;-85
2023/05/06 03:09:44;;;;;;;12.70;7.80;;;;;;;12.64;90.99;100333.45;185837;1234;44064;-84
2023/05/06 03:13:46;;;;;;;10.70;7.50;;;;;;;12.60;89.29;100332.19;186022;1235;58372;-84
2023/05/06 03:17:47;;;;;;;9.00;7.00;;;;;;;12.57;88.92;100335.44;185719;1235;43814;-85
2023/05/06 03:21:49;;;;;;;11.90;8.80;;;;;;;12.49;89.70;100335.17;185915;1235;44157;-84
2023/05/06 03:25:51;;;;;;;7.30;5.40;;;;;;;12.39;90.80;100334.88;185908;1235;43725;-84
2023/05/06 03:29:52;;;;;;;9.10;6.40;;;;;;;12.33;90.91;100332.84;186007;1234;43718;-85
2023/05/06 03:33:54;;;;;;;9.50;7.20;;;;;;;12.27;91.32;100331.19;185808;1234;58050;-84
2023/05/06 03:37:56;;;;;;;14.10;7.10;;;;;;;12.22;92.09;100327.67;185826;1235;43855;-85
2023/05/06 03:41:57;;;;;;;13.90;6.70;;;;;;;12.14;93.67;100330.31;185830;1234;43912;-86
2023/05/06 03:45:59;;;;;;;12.70;7.50;;;;;;;12.10;95.64;100322.89;185966;1235;43728;-86
2023/05/06 03:50:01;;;;;;;11.30;6.90;;;;;;;12.03;97.14;100317.27;185814;1235;43676;-86
2023/05/06 03:54:03;;;;;;;12.50;7.30;;;;;;;11.89;99.12;100318.79;185856;1235;59214;-86
2023/05/06 03:58:05;;;;;;;13.10;7.30;;;;;;;11.79;100.00;100319.63;186097;1235;43727;-85
2023/05/06 04:02:07;;;;;;;10.60;6.90;;;;;;;11.70;100.00;100318.63;185897;1234;43707;-88
2023/05/06 04:06:09;;;;;;;9.70;6.70;;;;;;;11.61;100.00;100310.37;185790;1238;43802;-87
2023/05/06 04:10:12;;;;;;;10.30;6.70;;;;;;;11.47;100.00;100304.23;185777;1237;43664;-86
2023/05/06 04:14:13;;;;;;;8.90;6.60;;;;;;;11.39;100.00;100286.30;185782;1235;57997;-87
2023/05/06 04:18:17;;;;;;;9.60;7.20;;;;;;;11.32;100.00;100270.38;186041;1234;43841;-86
2023/05/06 04:22:20;;;;;;;7.90;6.80;;;;;;;11.26;100.00;100265.20;185875;1235;43672;-88
2023/05/06 04:26:22;;;;;;;14.00;7.60;;;;;;;11.24;100.00;100262.54;186038;1235;43716;-88
2023/05/06 04:30:23;;;;;;;8.00;6.80;;;;;;;11.20;100.00;100266.02;185597;1235;43834;-88
2023/05/06 04:34:26;;;;;;;10.30;7.90;;;;;;;11.14;100.00;100279.29;185887;1235;57985;-88
2023/05/06 04:38:30;;;;;;;10.20;6.70;;;;;;;11.16;100.00;100301.14;185852;1235;43814;-89
2023/05/06 04:42:33;;;;;;;10.30;7.20;;;;;;;11.18;100.00;100302.82;185855;1235;43812;-88
2023/05/06 04:46:35;;;;;;;10.50;6.10;;;;;;;11.20;100.00;100298.91;185990;1235;43960;-88
2023/05/06 04:50:37;;;;;;;12.30;7.30;;;;;;;11.19;100.00;100309.83;186070;1236;43706;-88
2023/05/06 04:54:39;;;;;;;9.20;7.70;;;;;;;11.17;100.00;100308.71;185958;1236;59112;-90
2023/05/06 04:58:41;;;;;;;12.10;7.80;;;;;;;11.13;100.00;100302.45;186028;1235;43728;-90
2023/05/06 05:02:43;;;;;;;11.10;6.40;;;;;;;11.11;100.00;100300.71;186104;1237;43743;-90
2023/05/06 05:06:45;;;;;;;9.90;6.70;;;;;;;11.09;100.00;100311.70;185957;1235;44171;-89
2023/05/06 05:10:47;;;;;;;8.40;6.90;;;;;;;11.09;100.00;100310.13;185969;1234;43763;-89
2023/05/06 05:14:50;;;;;;;14.40;7.70;;;;;;;11.09;100.00;100314.33;185910;1235;59627;-89
2023/05/06 05:18:52;;;;;;;13.90;8.90;;;;;;;11.05;100.00;100308.98;185762;1235;43786;-88
2023/05/06 05:22:53;;;;;;;10.50;7.20;;;;;;;10.95;100.00;100308.73;185837;1235;43726;-86
2023/05/06 05:26:55;;;;;;;15.90;7.80;;;;;;;10.96;100.00;100309.73;185802;1236;43666;-87
2023/05/06 05:31:02;;;;;;;8.80;7.90;;;;;;;10.89;100.00;100308.34;185850;1237;43971;-87
2023/05/06 05:35:05;;;;;;;12.30;8.00;;;;;;;10.83;100.00;100305.16;185767;1235;57904;-88
2023/05/06 05:39:08;;;;;;;8.90;5.80;;;;;;;10.82;100.00;100306.80;185971;1235;44087;-87
2023/05/06 05:43:10;;;;;;;9.30;7.60;;;;;;;10.75;100.00;100305.92;185877;1234;43765;-86
2023/05/06 05:47:13;;;;;;;12.10;8.20;;;;;;;10.67;100.00;100310.14;185873;1235;44028;-88
2023/05/06 05:51:15;;;;;;;11.20;7.40;;;;;;;10.65;100.00;100309.60;186098;1235;43727;-90
2023/05/06 05:55:17;;;;;;;11.40;8.20;;;;;;;10.64;100.00;100310.60;186003;1235;58090;-89
2023/05/06 05:59:19;;;;;;;8.70;7.40;;;;;;;10.65;100.00;100311.41;185957;1235;44238;-90
2023/05/06 06:03:20;;;;;;;10.30;7.90;;;;;;;10.64;100.00;100308.29;185972;1234;43697;-89
2023/05/06 06:07:22;;;;;;;12.00;7.40;;;;;;;10.60;100.00;100306.27;185981;1237;44196;-89
2023/05/06 06:11:25;;;;;;;9.80;7.80;;;;;;;10.59;100.00;100301.92;185818;1235;43667;-88
2023/05/06 06:15:28;;;;;;;12.40;9.80;;;;;;;10.61;100.00;100298.25;185811;1235;58485;-88
2023/05/06 06:19:30;;;;;;;11.50;7.90;;;;;;;10.61;100.00;100301.27;185782;1235;43918;-88
2023/05/06 06:23:32;;;;;;;12.70;8.40;;;;;;;10.55;100.00;100298.16;185892;1235;43736;-88
2023/05/06 06:27:35;;;;;;;13.50;8.50;;;;;;;10.53;100.00;100304.52;186021;1235;43897;-89
2023/05/06 06:31:37;;;;;;;8.30;7.50;;;;;;;10.51;100.00;100299.38;185843;1237;43694;-89
2023/05/06 06:35:44;;;;;;;17.10;8.20;;;;;;;10.45;100.00;100292.23;186091;1235;58088;-88
2023/05/06 06:39:50;;;;;;;8.40;7.00;;;;;;;10.41;100.00;100295.38;186259;1234;83779;-58
2023/05/06 06:43:52;;;;;;;12.50;8.50;;;;;;;10.40;100.00;100306.95;185946;1235;43734;-89
2023/05/06 06:47:54;;;;;;;13.90;9.00;;;;;;;10.46;100.00;100307.23;185708;1235;43640;-89
2023/05/06 06:51:56;;;;;;;11.70;7.80;;;;;;;10.54;100.00;100312.45;186067;1235;43752;-90
2023/05/06 06:55:58;;;;;;;15.20;8.40;;;;;;;10.62;100.00;100320.31;185708;1237;60285;-89
2023/05/06 07:00:00;;;;;;;10.40;9.10;;;;;;;10.66;100.00;100318.70;185793;1235;43616;-89
2023/05/06 07:04:03;;;;;;;14.40;9.00;;;;;;;10.69;100.00;100306.80;185867;1235;43653;-89
2023/05/06 07:08:08;;;;;;;33.70;24.30;;;;;;;10.71;100.00;100304.50;185790;1235;43686;-89
2023/05/06 07:12:13;;;;;;;11.80;10.40;;;;;;;10.78;100.00;100307.69;185773;1236;43922;-89
2023/05/06 07:16:16;;;;;;;13.00;11.80;;;;;;;10.79;100.00;100309.23;185712;1236;58178;-89
2023/05/06 07:20:19;;;;;;;12.70;10.90;;;;;;;10.79;100.00;100303.52;185628;1235;43826;-88
2023/05/06 07:24:21;;;;;;;11.80;8.80;;;;;;;10.77;100.00;100295.15;185778;1236;43659;-88
2023/05/06 07:28:25;;;;;;;11.10;9.60;;;;;;;10.73;100.00;100292.13;185743;1236;43715;-89
2023/05/06 07:32:28;;;;;;;10.10;7.50;;;;;;;10.65;100.00;100287.77;185995;1235;43708;-89
2023/05/06 07:36:45;;;;;;;12.90;9.00;;;;;;;10.60;100.00;100289.83;186162;1235;58321;-90
2023/05/06 07:46:01;;;;;;;16.70;12.20;;;;;;;10.55;100.00;100285.42;186502;1240;42913;-59
2023/05/06 07:50:14;;;;;;;12.60;8.80;;;;;;;10.60;100.00;100281.67;186439;1237;43479;-59
2023/05/06 07:54:17;;;;;;;9.50;8.50;;;;;;;10.63;100.00;100282.29;186427;1236;43007;-59
2023/05/06 07:58:20;;;;;;;15.20;10.10;;;;;;;10.64;100.00;100285.73;186435;1237;58609;-59
2023/05/06 08:02:21;;;;;;;28.00;13.40;;;;;;;10.60;100.00;100279.84;186518;1236;43938;-61
2023/05/06 08:06:23;;;;;;;21.80;10.50;;;;;;;10.63;100.00;100268.98;186478;1237;43617;-59
2023/05/06 08:10:27;;;;;;;15.50;10.00;;;;;;;10.68;100.00;100266.63;186421;1236;43112;-60
2023/05/06 08:14:30;;;;;;;15.60;10.50;;;;;;;10.68;100.00;100265.40;186455;1237;43305;-59
2023/05/06 08:18:32;;;;;;;13.20;9.90;;;;;;;10.69;100.00;100268.48;186314;1236;59185;-58
2023/05/06 08:22:34;;;;;;;14.00;11.40;;;;;;;10.71;100.00;100272.23;186422;1236;43603;-58
2023/05/06 08:26:36;;;;;;;12.40;11.10;;;;;;;10.70;100.00;100267.48;186448;1236;43326;-59
2023/05/06 08:30:38;;;;;;;16.30;14.00;;;;;;;10.69;100.00;100268.13;186446;1236;43106;-59
2023/05/06 08:34:40;;;;;;;18.30;14.00;;;;;;;10.74;100.00;100269.90;186355;1237;43175;-59
2023/05/06 08:38:47;;;;;;;22.00;15.90;;;;;;;10.72;100.00;100271.80;186439;1236;57963;-59
2023/05/06 08:42:49;;;;;;;22.90;18.00;;;;;;;10.82;100.00;100277.86;186354;1237;43059;-59
2023/05/06 08:46:51;;;;;;;14.80;11.10;;;;;;;11.00;100.00;100286.36;186388;1238;43043;-57
2023/05/06 08:50:54;;;;;;;26.20;14.00;;;;;;;11.15;100.00;100298.73;186464;1236;43005;-59
2023/05/06 08:55:00;;;;;;;17.30;14.90;;;;;;;11.32;100.00;100303.36;186313;1238;43780;-60
2023/05/06 08:59:01;;;;;;;22.60;16.30;;;;;;;11.47;100.00;100306.90;186360;1236;58326;-60
2023/05/06 09:03:03;;;;;;;12.80;10.90;;;;;;;11.62;100.00;100302.61;186186;1236;43039;-58
2023/05/06 09:07:06;;;;;;;11.90;9.40;;;;;;;11.75;100.00;100294.41;186303;1236;43006;-61
2023/05/06 09:11:22;;;;;;;13.40;8.40;;;;;;;11.89;100.00;100293.00;186476;1236;43042;-61
2023/05/06 09:15:25;;;;;;;11.90;10.20;;;;;;;12.16;100.00;100300.35;186330;1236;43795;-60
2023/05/06 09:19:27;;;;;;;15.40;9.80;;;;;;;12.30;100.00;100296.75;186366;1236;58086;-60
2023/05/06 09:23:28;;;;;;;15.70;11.60;;;;;;;12.42;100.00;100302.25;186302;1236;43245;-60
2023/05/06 09:27:33;;;;;;;13.00;10.30;;;;;;;12.49;100.00;100293.13;186497;1236;43959;-62
2023/05/06 09:31:51;;;;;;;10.30;9.20;;;;;;;12.57;100.00;100283.88;186439;1236;43050;-61
2023/05/06 09:35:52;;;;;;;13.20;10.40;;;;;;;12.75;100.00;100282.83;186411;1237;43362;-61
2023/05/06 09:39:56;;;;;;;15.40;12.10;;;;;;;12.89;100.00;100283.16;186408;1239;58018;-61
2023/05/06 09:43:58;;;;;;;22.80;14.20;;;;;;;12.98;100.00;100285.33;186407;1236;43692;-62
2023/05/06 09:47:59;;;;;;;18.40;11.40;;;;;;;12.99;100.00;100288.27;186356;1236;43811;-64
2023/05/06 09:52:01;;;;;;;14.10;10.30;;;;;;;12.99;100.00;100300.38;186405;1237;43744;-63
2023/05/06 09:56:07;;;;;;;19.30;13.50;;;;;;;12.89;100.00;100301.61;186462;1237;43611;-63
2023/05/06 10:00:10;;;;;;;20.30;11.70;;;;;;;12.78;100.00;100308.16;186400;1236;58872;-63
2023/05/06 10:04:12;;;;;;;38.70;24.40;;;;;;;12.73;100.00;100311.45;186342;1236;43746;-63
2023/05/06 10:08:17;;;;;;;21.00;15.10;;;;;;;12.71;100.00;100318.23;186330;1236;43058;-62
2023/05/06 10:12:19;;;;;;;41.40;26.10;;;;;;;12.64;100.00;100318.32;186427;1236;43466;-62
2023/05/06 10:26:10;;;;;;;15.20;10.60;;;;;;;12.53;100.00;100289.71;186369;1240;43175;-63
2023/05/06 10:30:21;;;;;;;11.00;9.80;;;;;;;12.56;100.00;100280.77;186292;1236;43664;-61
2023/05/06 10:34:24;;;;;;;16.30;10.40;;;;;;;12.60;100.00;100277.80;185648;1235;43842;-81
2023/05/06 10:38:33;;;;;;;12.30;10.60;;;;;;;12.62;100.00;100281.27;185615;1237;43993;-81
2023/05/06 10:42:35;;;;;;;13.60;10.30;;;;;;;12.64;100.00;100270.05;185586;1235;57981;-83
2023/05/06 10:46:56;;;;;;;17.70;14.20;;;;;;;12.77;100.00;100270.54;185753;1235;44072;-82
2023/05/06 10:51:27;;;;;;;16.00;14.20;;;;;;;12.94;100.00;100272.40;185558;1235;44651;-82
2023/05/06 10:55:33;;;;;;;15.50;14.10;;;;;;;13.05;100.00;100274.23;185623;1235;43744;-82
2023/05/06 10:59:34;;;;;;;16.20;13.30;;;;;;;13.06;100.00;100267.69;185694;1235;43835;-82
2023/05/06 11:03:36;;;;;;;17.70;12.30;;;;;;;13.04;100.00;100278.00;185563;1235;58141;-82
2023/05/06 11:07:37;;;;;;;16.80;12.40;;;;;;;12.98;100.00;100275.17;185565;1235;43914;-82
2023/05/06 11:11:48;;;;;;;20.30;13.60;;;;;;;12.97;100.00;100271.52;185830;1235;43935;-82
2023/05/06 11:15:50;;;;;;;13.80;12.50;;;;;;;12.98;100.00;100280.34;185858;1236;43718;-82
2023/05/06 11:20:19;;;;;;;18.50;15.70;;;;;;;12.96;100.00;100277.45;185738;1239;44254;-82
2023/05/06 11:24:37;;;;;;;18.40;13.30;;;;;;;12.99;100.00;100277.37;185779;1238;57896;-82
2023/05/06 11:28:42;;;;;;;17.30;14.00;;;;;;;13.08;100.00;100283.51;185870;1235;44255;-81
2023/05/06 11:32:45;;;;;;;17.00;13.10;;;;;;;13.15;100.00;100287.48;185821;1235;43901;-82
2023/05/06 11:36:50;;;;;;;17.10;15.30;;;;;;;13.21;100.00;100292.38;185648;1239;43887;-82
2023/05/06 11:40:51;;;;;;;18.50;15.20;;;;;;;13.25;100.00;100296.52;185645;1236;44177;-83
2023/05/06 11:44:54;;;;;;;16.90;13.20;;;;;;;13.28;100.00;100302.48;186085;1235;187160;-82
2023/05/06 11:48:55;;;;;;;17.30;12.70;;;;;;;13.27;100.00;100306.88;185947;1235;43823;-82
2023/05/06 11:52:57;;;;;;;18.20;13.20;;;;;;;13.20;100.00;100309.12;185712;1235;43729;-82
2023/05/06 11:56:59;;;;;;;18.00;12.90;;;;;;;13.17;100.00;100315.13;185744;1235;43692;-83
2023/05/06 12:01:02;;;;;;;19.80;14.60;;;;;;;13.13;100.00;100320.83;185599;1235;43855;-83
2023/05/06 12:05:04;;;;;;;18.30;13.70;;;;;;;13.07;100.00;100321.91;185700;1235;59414;-82
2023/05/06 12:09:10;;;;;;;18.30;14.60;;;;;;;13.10;100.00;100328.80;185581;1235;43649;-83
2023/05/06 12:13:13;;;;;;;19.00;15.30;;;;;;;13.12;100.00;100331.63;185869;1235;43756;-82
2023/05/06 12:17:15;;;;;;;25.40;16.90;;;;;;;13.07;100.00;100328.55;185812;1235;43895;-83
2023/05/06 12:21:21;;;;;;;17.00;15.10;;;;;;;13.00;100.00;100332.70;185917;1235;44114;-82
2023/05/06 12:25:22;;;;;;;29.90;17.40;;;;;;;12.99;100.00;100334.34;185907;1235;59150;-82
2023/05/06 12:29:24;;;;;;;25.40;18.40;;;;;;;12.99;100.00;100337.20;185739;1235;44080;-83
2023/05/06 12:33:26;;;;;;;21.10;16.00;;;;;;;12.99;100.00;100339.14;185775;1235;43830;-82
2023/05/06 12:37:28;;;;;;;30.30;15.80;;;;;;;13.01;100.00;100334.02;185602;1235;44054;-83
2023/05/06 12:41:44;;;;;;;21.10;15.60;;;;;;;12.99;100.00;100334.38;185563;1236;43979;-82
2023/05/06 12:46:03;;;;;;;21.10;16.80;;;;;;;13.03;100.00;100340.49;185605;1239;57857;-82
2023/05/06 12:50:05;;;;;;;20.90;16.30;;;;;;;13.09;100.00;100341.85;185779;1236;44176;-83
2023/05/06 12:54:30;;;;;;;18.60;16.60;;;;;;;13.11;100.00;100343.58;185761;1235;44207;-82
2023/05/06 12:58:36;;;;;;;18.00;15.40;;;;;;;13.09;100.00;100349.65;185894;1235;43723;-83
2023/05/06 13:02:37;;;;;;;23.00;17.10;;;;;;;13.12;100.00;100350.80;185640;1235;43741;-82
2023/05/06 13:06:39;;;;;;;19.50;17.20;;;;;;;13.18;100.00;100353.29;185501;1235;58417;-83
2023/05/06 13:10:40;;;;;;;19.20;16.50;;;;;;;13.22;100.00;100353.48;185583;1236;43844;-82
2023/05/06 13:14:42;;;;;;;18.10;15.50;;;;;;;13.29;100.00;100356.23;185677;1236;43952;-83
2023/05/06 13:18:44;;;;;;;16.60;14.90;;;;;;;13.32;100.00;100362.35;185933;1235;43849;-83
2023/05/06 13:22:46;;;;;;;27.20;18.10;;;;;;;13.37;100.00;100365.33;185750;1235;43738;-83
2023/05/06 13:26:58;;;;;;;25.90;17.00;;;;;;;13.41;100.00;100364.17;185588;1235;58188;-82
2023/05/06 13:30:59;;;;;;;20.60;16.20;;;;;;;13.46;100.00;100363.83;185569;1236;44443;-82
2023/05/06 13:35:01;;;;;;;20.20;16.10;;;;;;;13.50;100.00;100361.29;185727;1235;43744;-83
2023/05/06 13:39:03;;;;;;;21.30;17.00;;;;;;;13.52;100.00;100362.83;185715;1235;44186;-83
2023/05/06 13:43:04;;;;;;;24.00;17.90;;;;;;;13.60;100.00;100365.36;185681;1235;43885;-82
2023/05/06 13:47:06;;;;;;;20.90;17.20;;;;;;;13.64;100.00;100367.83;185710;1235;58111;-83
2023/05/06 13:51:08;;;;;;;24.90;18.20;;;;;;;13.59;100.00;100368.31;185591;1235;44084;-83
2023/05/06 13:55:10;;;;;;;18.10;14.70;;;;;;;13.57;100.00;100374.50;185550;1235;44101;-84
2023/05/06 13:59:12;;;;;;;18.60;15.10;;;;;;;13.62;100.00;100371.94;185606;1239;43754;-84
2023/05/06 14:03:14;;;;;;;23.00;15.70;;;;;;;13.66;100.00;100374.60;185745;1235;43824;-85
2023/05/06 14:07:16;;;;;;;22.80;15.40;;;;;;;13.70;100.00;100378.83;185664;1235;57791;-84
2023/05/06 14:11:18;;;;;;;21.90;17.80;;;;;;;13.72;100.00;100380.96;185957;1236;44025;-84
2023/05/06 14:15:19;;;;;;;21.90;16.40;;;;;;;13.72;100.00;100383.51;185733;1235;44081;-84
2023/05/06 14:19:21;;;;;;;16.90;14.80;;;;;;;13.75;100.00;100382.17;185837;1235;43759;-84
2023/05/06 14:23:22;;;;;;;20.50;16.20;;;;;;;13.73;100.00;100383.03;185914;1235;43900;-83
2023/05/06 14:27:24;;;;;;;19.90;16.70;;;;;;;13.64;100.00;100389.23;185605;1235;58555;-84
2023/05/06 14:31:26;;;;;;;16.60;14.40;;;;;;;13.53;100.00;100390.96;185582;1235;44184;-84
2023/05/06 14:35:28;;;;;;;15.70;13.80;;;;;;;13.44;100.00;100386.74;185743;1239;44177;-85
2023/05/06 14:39:30;;;;;;;19.70;15.60;;;;;;;13.39;100.00;100387.69;185587;1239;44225;-84
2023/05/06 14:43:31;;;;;;;20.70;16.70;;;;;;;13.40;100.00;100391.73;185741;1239;43751;-84
2023/05/06 14:47:33;;;;;;;21.60;17.30;;;;;;;13.32;100.00;100391.71;185687;1235;59197;-83
2023/05/06 14:51:34;;;;;;;21.50;18.40;;;;;;;13.36;100.00;100395.65;185707;1235;43964;-84
2023/05/06 14:55:36;;;;;;;18.00;15.80;;;;;;;13.40;100.00;100397.15;185668;1236;43830;-83
2023/05/06 14:59:37;;;;;;;21.70;16.20;;;;;;;13.39;100.00;100395.06;185895;1236;43781;-84
2023/05/06 15:03:39;;;;;;;18.20;16.20;;;;;;;13.41;100.00;100396.64;185826;1235;43781;-83
2023/05/06 15:07:41;;;;;;;11.00;9.40;;;;;;;13.32;100.00;100400.83;185932;1235;57839;-85
2023/05/06 15:11:44;;;;;;;9.80;8.70;;;;;;;13.16;100.00;100400.32;185897;1236;44136;-83
2023/05/06 15:15:46;;;;;;;12.30;10.50;;;;;;;13.08;100.00;100401.72;185718;1235;43840;-84
2023/05/06 15:19:48;;;;;;;13.10;11.60;;;;;;;12.99;100.00;100404.84;185612;1236;43843;-84
2023/05/06 15:23:50;;;;;;;10.50;9.40;;;;;;;12.90;100.00;100410.52;185786;1236;44237;-85
2023/05/06 15:27:51;;;;;;;10.90;9.80;;;;;;;12.81;100.00;100415.42;185927;1235;59680;-84
2023/05/06 15:31:53;;;;;;;11.20;9.40;;;;;;;12.72;100.00;100420.48;185954;1236;43721;-85
2023/05/06 15:35:55;;;;;;;12.10;10.90;;;;;;;12.59;100.00;100420.67;185685;1236;43774;-84
2023/05/06 15:39:56;;;;;;;10.90;9.10;;;;;;;12.55;100.00;100423.86;185706;1236;44205;-85
2023/05/06 15:43:59;;;;;;;10.70;9.40;;;;;;;12.54;100.00;100424.81;185777;1236;43705;-86
2023/05/06 15:48:01;;;;;;;10.30;9.30;;;;;;;12.46;100.00;100431.59;185805;1235;57920;-85
2023/05/06 15:52:03;;;;;;;13.30;11.20;;;;;;;12.38;100.00;100436.77;185639;1235;43914;-85
2023/05/06 15:56:05;;;;;;;19.50;12.10;;;;;;;12.32;100.00;100437.67;185755;1235;44054;-84
2023/05/06 16:00:20;;;;;;;11.50;9.50;;;;;;;12.25;100.00;100441.38;185695;1236;43726;-85
2023/05/06 16:04:22;;;;;;;13.40;10.90;;;;;;;12.23;100.00;100441.08;185964;1235;43692;-85
2023/05/06 16:08:24;;;;;;;16.60;12.00;;;;;;;12.18;100.00;100440.94;185609;1235;59725;-84
2023/05/06 16:12:26;;;;;;;15.70;13.30;;;;;;;12.10;100.00;100441.95;185955;1236;44089;-84
2023/05/06 16:16:27;;;;;;;13.20;11.30;;;;;;;12.06;100.00;100441.99;185658;1235;43856;-84
2023/05/06 16:20:31;;;;;;;17.90;12.60;;;;;;;11.97;100.00;100440.54;186061;1236;43680;-84
2023/05/06 16:24:33;;;;;;;18.80;15.20;;;;;;;11.99;100.00;100440.17;186032;1235;43646;-86
2023/05/06 16:28:34;;;;;;;18.50;16.40;;;;;;;12.01;100.00;100437.37;185668;1235;57563;-84
2023/05/06 16:32:37;;;;;;;14.70;13.00;;;;;;;12.07;100.00;100434.77;185746;1239;43911;-84
2023/05/06 16:36:39;;;;;;;19.80;14.80;;;;;;;12.07;100.00;100438.86;185769;1235;44038;-85
2023/05/06 16:40:46;;;;;;;18.20;15.00;;;;;;;12.02;100.00;100439.28;185596;1237;44177;-85
2023/05/06 16:44:48;;;;;;;16.40;12.70;;;;;;;12.00;100.00;100442.63;185788;1236;43942;-85
2023/05/06 16:48:50;;;;;;;26.20;14.00;;;;;;;12.02;100.00;100441.27;185729;1236;59333;-83
2023/05/06 16:52:52;;;;;;;16.10;13.00;;;;;;;12.00;100.00;100447.96;185994;1236;43734;-85
2023/05/06 16:56:54;;;;;;;15.30;13.60;;;;;;;11.99;100.00;100452.48;185565;1235;43790;-84
2023/05/06 17:00:56;;;;;;;16.70;13.60;;;;;;;12.01;100.00;100455.30;186005;1236;43939;-84
2023/05/06 17:04:57;;;;;;;16.40;12.70;;;;;;;12.03;100.00;100460.14;185768;1235;43930;-84
2023/05/06 17:08:59;;;;;;;15.00;11.00;;;;;;;12.00;100.00;100462.04;185603;1236;60250;-84
2023/05/06 17:13:02;;;;;;;15.90;13.40;;;;;;;11.92;100.00;100462.81;185653;1236;44050;-84
2023/05/06 17:17:04;;;;;;;33.40;13.30;;;;;;;11.86;100.00;100469.88;185717;1239;43757;-84
2023/05/06 17:21:07;;;;;;;26.70;20.60;;;;;;;11.81;100.00;100474.39;186021;1235;43802;-84
2023/05/06 17:25:09;;;;;;;23.10;16.70;;;;;;;11.76;100.00;100473.02;185698;1236;44346;-84
2023/05/06 17:29:11;;;;;;;18.20;16.10;;;;;;;11.78;100.00;100474.30;185750;1235;57890;-86
2023/05/06 17:33:13;;;;;;;14.10;11.80;;;;;;;11.70;100.00;100478.33;185795;1235;43852;-83
2023/05/06 17:37:14;;;;;;;13.50;10.90;;;;;;;11.64;100.00;100481.48;185600;1239;44028;-83
2023/05/06 17:41:16;;;;;;;18.40;13.50;;;;;;;11.60;100.00;100482.88;185789;1239;43858;-83
2023/05/06 17:45:18;;;;;;;14.00;11.20;;;;;;;11.52;100.00;100484.58;185920;1235;43911;-83
2023/05/06 17:49:20;;;;;;;12.80;10.70;;;;;;;11.44;100.00;100487.04;185508;1239;58769;-83
2023/05/06 17:53:22;;;;;;;11.50;9.20;;;;;;;11.35;100.00;100487.56;185613;1239;44135;-84
2023/05/06 17:57:23;;;;;;;14.80;12.00;;;;;;;11.34;100.00;100487.88;185640;1237;43889;-84
2023/05/06 18:01:25;;;;;;;12.60;10.70;;;;;;;11.35;100.00;100500.90;185622;1236;43736;-84
2023/05/06 18:05:27;;;;;;;13.90;11.70;;;;;;;11.35;100.00;100502.16;185949;1236;44146;-84
2023/05/06 18:09:29;;;;;;;12.90;10.70;;;;;;;11.28;100.00;100510.68;185951;1239;58413;-84
2023/05/06 18:13:33;;;;;;;13.90;11.90;;;;;;;11.28;100.00;100514.60;185634;1235;43884;-84
2023/05/06 18:17:36;;;;;;;12.60;11.00;;;;;;;11.27;100.00;100516.25;185526;1235;44020;-84
2023/05/06 18:21:37;;;;;;;15.70;13.60;;;;;;;11.29;100.00;100516.80;185686;1235;44054;-84
2023/05/06 18:25:42;;;;;;;13.60;10.10;;;;;;;11.33;100.00;100522.23;185778;1235;44126;-85